createdAt,value
2022-09-28T00:00:12.741Z,97.77
2022-09-28T00:01:12.715Z,97.87
2022-09-28T00:02:12.846Z,97.87
2022-09-28T00:03:12.754Z,97.97
2022-09-28T00:04:12.712Z,97.97
2022-09-28T00:05:12.745Z,98.07
2022-09-28T00:06:12.675Z,98.07
2022-09-28T00:07:12.655Z,98.18
2022-09-28T00:08:12.675Z,98.18
2022-09-28T00:09:12.733Z,98.28
2022-09-28T00:10:12.626Z,98.28
2022-09-28T00:11:12.612Z,98.28
2022-09-28T00:12:12.607Z,98.28
2022-09-28T00:13:12.609Z,98.38
2022-09-28T00:14:12.616Z,98.38
2022-09-28T00:15:12.572Z,98.38
2022-09-28T00:16:12.594Z,98.49
2022-09-28T00:17:12.550Z,98.49
2022-09-28T00:18:12.549Z,98.49
2022-09-28T00:19:12.572Z,98.59
2022-09-28T00:20:12.522Z,98.59
2022-09-28T00:21:12.530Z,98.69
2022-09-28T00:22:12.522Z,98.69
2022-09-28T00:23:12.489Z,98.59
2022-09-28T00:24:12.528Z,98.49
2022-09-28T00:25:12.482Z,98.59
2022-09-28T00:26:12.490Z,98.59
2022-09-28T00:27:12.455Z,98.59
2022-09-28T00:28:12.445Z,98.69
2022-09-28T00:29:12.451Z,98.69
2022-09-28T00:30:12.424Z,98.69
2022-09-28T00:31:12.440Z,98.59
2022-09-28T00:32:12.403Z,98.59
2022-09-28T00:33:12.457Z,98.49
2022-09-28T00:34:12.392Z,98.38
2022-09-28T00:35:12.367Z,98.49
2022-09-28T00:36:12.361Z,98.59
2022-09-28T00:37:12.370Z,98.69
2022-09-28T00:38:12.341Z,98.79
2022-09-28T00:39:12.337Z,98.79
2022-09-28T00:40:12.318Z,98.79
2022-09-28T00:41:12.306Z,98.79
2022-09-28T00:42:12.294Z,98.79
2022-09-28T00:43:12.281Z,98.79
2022-09-28T00:44:12.285Z,98.79
2022-09-28T00:45:12.261Z,98.79
2022-09-28T00:46:12.336Z,98.85
2022-09-28T00:47:12.240Z,98.85
2022-09-28T00:48:12.228Z,98.85
2022-09-28T00:49:12.237Z,98.85
2022-09-28T00:50:12.211Z,98.79
2022-09-28T00:51:12.202Z,98.90
2022-09-28T00:52:12.189Z,98.96
2022-09-28T00:53:12.211Z,98.96
2022-09-28T00:54:12.185Z,99.21
2022-09-28T00:55:12.160Z,99.31
2022-09-28T00:56:12.146Z,99.31
2022-09-28T00:57:12.140Z,99.41
2022-09-28T00:58:12.125Z,99.37
2022-09-28T00:59:12.131Z,99.37
2022-09-28T01:00:12.105Z,99.41
2022-09-28T01:01:12.136Z,99.37
2022-09-28T01:02:12.176Z,99.37
2022-09-28T01:03:12.074Z,99.37
2022-09-28T01:04:12.078Z,99.26
2022-09-28T01:05:12.059Z,99.26
2022-09-28T01:06:12.044Z,99.26
2022-09-28T01:07:12.032Z,99.31
2022-09-28T01:08:12.029Z,99.26
2022-09-28T01:09:12.057Z,99.26
2022-09-28T01:10:12.006Z,99.16
2022-09-28T01:11:11.990Z,99.16
2022-09-28T01:12:11.986Z,99.26
2022-09-28T01:13:11.972Z,99.26
2022-09-28T01:14:11.981Z,99.26
2022-09-28T01:15:11.952Z,99.26
2022-09-28T01:16:11.985Z,99.26
2022-09-28T01:17:11.941Z,99.26
2022-09-28T01:18:11.922Z,99.26
2022-09-28T01:19:11.923Z,99.26
2022-09-28T01:20:11.901Z,99.16
2022-09-28T01:21:11.892Z,99.16
2022-09-28T01:22:11.883Z,99.16
2022-09-28T01:23:11.867Z,99.21
2022-09-28T01:24:11.875Z,99.21
2022-09-28T01:25:11.878Z,99.21
2022-09-28T01:26:11.844Z,99.21
2022-09-28T01:27:11.830Z,99.21
2022-09-28T01:28:11.823Z,99.21
2022-09-28T01:29:11.822Z,99.21
2022-09-28T01:30:11.798Z,99.21
2022-09-28T01:31:11.885Z,99.31
2022-09-28T01:32:11.781Z,99.31
2022-09-28T01:33:11.768Z,99.31
2022-09-28T01:34:11.770Z,99.21
2022-09-28T01:35:11.757Z,99.21
2022-09-28T01:36:11.737Z,99.21
2022-09-28T01:37:11.729Z,99.21
2022-09-28T01:38:11.719Z,99.21
2022-09-28T01:39:11.728Z,99.21
2022-09-28T01:40:11.712Z,99.21
2022-09-28T01:41:11.710Z,99.21
2022-09-28T01:42:11.678Z,99.21
2022-09-28T01:43:11.737Z,99.21
2022-09-28T01:44:11.676Z,99.21
2022-09-28T01:45:11.650Z,99.31
2022-09-28T01:46:11.717Z,99.31
2022-09-28T01:47:11.629Z,99.31
2022-09-28T01:48:11.625Z,99.31
2022-09-28T01:49:11.697Z,99.31
2022-09-28T01:50:11.678Z,99.41
2022-09-28T01:51:11.591Z,99.41
2022-09-28T01:52:11.576Z,99.41
2022-09-28T01:53:11.570Z,99.41
2022-09-28T01:54:11.574Z,99.51
2022-09-28T01:55:11.546Z,99.51
2022-09-28T01:56:11.571Z,99.51
2022-09-28T01:57:11.570Z,99.62
2022-09-28T01:58:11.523Z,99.72
2022-09-28T01:59:11.512Z,99.72
2022-09-28T02:00:11.581Z,99.72
2022-09-28T02:01:11.579Z,99.72
2022-09-28T02:02:11.559Z,99.82
2022-09-28T02:03:11.477Z,99.82
2022-09-28T02:04:11.467Z,99.93
2022-09-28T02:05:11.546Z,99.93
2022-09-28T02:06:11.479Z,99.93
2022-09-28T02:07:11.427Z,99.99
2022-09-28T02:08:11.425Z,99.99
2022-09-28T02:09:11.407Z,99.99
2022-09-28T02:10:11.409Z,99.99
2022-09-28T02:11:11.477Z,99.99
2022-09-28T02:12:11.379Z,99.99
2022-09-28T02:13:11.381Z,99.99
2022-09-28T02:14:11.350Z,99.99
2022-09-28T02:15:11.351Z,99.99
2022-09-28T02:16:11.384Z,99.99
2022-09-28T02:17:11.315Z,99.99
2022-09-28T02:18:11.309Z,99.99
2022-09-28T02:19:11.302Z,99.99
2022-09-28T02:20:11.300Z,99.99
2022-09-28T02:21:11.280Z,99.99
2022-09-28T02:22:11.272Z,99.99
2022-09-28T02:23:11.262Z,99.99
2022-09-28T02:24:11.262Z,99.99
2022-09-28T02:25:11.258Z,99.99
2022-09-28T02:26:11.244Z,99.99
2022-09-28T02:27:11.267Z,99.99
2022-09-28T02:28:11.255Z,99.99
2022-09-28T02:29:11.358Z,99.99
2022-09-28T02:30:11.204Z,99.99
2022-09-28T02:31:11.217Z,99.99
2022-09-28T02:32:11.172Z,99.99
2022-09-28T02:33:11.169Z,99.99
2022-09-28T02:34:11.192Z,99.99
2022-09-28T02:35:11.149Z,99.99
2022-09-28T02:36:11.129Z,99.99
2022-09-28T02:37:11.126Z,99.99
2022-09-28T02:38:11.113Z,99.99
2022-09-28T02:39:11.141Z,99.99
2022-09-28T02:40:11.088Z,99.99
2022-09-28T02:41:11.076Z,99.99
2022-09-28T02:42:11.071Z,99.99
2022-09-28T02:43:11.060Z,99.81
2022-09-28T02:44:11.065Z,99.71
2022-09-28T02:45:11.056Z,99.71
2022-09-28T02:46:11.127Z,99.71
2022-09-28T02:47:11.015Z,99.60
2022-09-28T02:48:11.022Z,99.60
2022-09-28T02:49:21.439Z,99.51
2022-09-28T02:50:11.979Z,99.40
2022-09-28T02:51:10.971Z,99.40
2022-09-28T02:52:10.959Z,99.40
2022-09-28T02:53:10.960Z,99.40
2022-09-28T02:54:13.418Z,99.40
2022-09-28T02:55:10.931Z,99.40
2022-09-28T02:56:10.916Z,99.51
2022-09-28T02:57:10.909Z,99.51
2022-09-28T02:58:10.896Z,99.60
2022-09-28T02:59:10.946Z,99.60
2022-09-28T03:00:10.899Z,99.71
2022-09-28T03:01:10.978Z,99.71
2022-09-28T03:02:10.951Z,99.81
2022-09-28T03:03:10.847Z,99.81
2022-09-28T03:04:10.843Z,99.91
2022-09-28T03:05:10.839Z,99.91
2022-09-28T03:06:10.819Z,99.99
2022-09-28T03:07:10.804Z,99.99
2022-09-28T03:08:10.794Z,99.99
2022-09-28T03:09:10.850Z,99.99
2022-09-28T03:10:10.792Z,99.99
2022-09-28T03:11:10.764Z,99.99
2022-09-28T03:12:10.757Z,99.99
2022-09-28T03:13:10.748Z,99.99
2022-09-28T03:14:10.735Z,99.99
2022-09-28T03:15:10.741Z,99.99
2022-09-28T03:16:10.764Z,99.99
2022-09-28T03:17:10.786Z,99.99
2022-09-28T03:18:10.697Z,99.99
2022-09-28T03:19:10.724Z,99.99
2022-09-28T03:20:10.687Z,99.99
2022-09-28T03:21:10.665Z,99.99
2022-09-28T03:22:10.651Z,99.99
2022-09-28T03:23:26.135Z,99.99
2022-09-28T03:24:11.632Z,99.99
2022-09-28T03:25:10.642Z,99.99
2022-09-28T03:26:10.612Z,99.99
2022-09-28T03:27:10.601Z,99.99
2022-09-28T03:28:10.592Z,99.99
2022-09-28T03:29:10.637Z,99.99
2022-09-28T03:30:10.585Z,99.99
2022-09-28T03:31:10.699Z,99.99
2022-09-28T03:32:10.572Z,99.99
2022-09-28T03:33:10.564Z,99.99
2022-09-28T03:34:10.529Z,99.99
2022-09-28T03:35:10.537Z,99.99
2022-09-28T03:36:10.512Z,99.99
2022-09-28T03:37:10.498Z,99.99
2022-09-28T03:38:10.488Z,99.99
2022-09-28T03:39:10.515Z,99.99
2022-09-28T03:40:10.494Z,99.99
2022-09-28T03:41:10.463Z,99.99
2022-09-28T03:42:10.452Z,99.99
2022-09-28T03:43:10.439Z,99.99
2022-09-28T03:44:10.436Z,99.99
2022-09-28T03:45:10.486Z,99.99
2022-09-28T03:46:10.518Z,99.99
2022-09-28T03:47:10.398Z,99.99
2022-09-28T03:48:10.412Z,99.99
2022-09-28T03:49:10.448Z,99.99
2022-09-28T03:50:10.769Z,99.99
2022-09-28T03:51:10.356Z,99.99
2022-09-28T03:52:10.348Z,99.99
2022-09-28T03:53:10.333Z,99.99
2022-09-28T03:54:10.343Z,99.99
2022-09-28T03:55:10.314Z,99.99
2022-09-28T03:56:10.313Z,99.99
2022-09-28T03:57:10.294Z,99.99
2022-09-28T03:58:10.285Z,99.99
2022-09-28T03:59:10.358Z,99.99
2022-09-28T04:00:10.338Z,99.99
2022-09-28T04:01:14.208Z,99.99
2022-09-28T04:02:11.294Z,99.99
2022-09-28T04:03:10.231Z,99.99
2022-09-28T04:04:10.241Z,99.99
2022-09-28T04:05:10.233Z,99.99
2022-09-28T04:06:10.206Z,99.99
2022-09-28T04:07:10.191Z,99.99
2022-09-28T04:08:10.189Z,99.99
2022-09-28T04:09:10.212Z,99.99
2022-09-28T04:10:10.161Z,99.99
2022-09-28T04:11:10.155Z,99.99
2022-09-28T04:12:10.162Z,99.99
2022-09-28T04:13:10.137Z,99.99
2022-09-28T04:14:10.143Z,99.99
2022-09-28T04:15:10.110Z,99.99
2022-09-28T04:16:10.132Z,99.99
2022-09-28T04:17:10.090Z,99.99
2022-09-28T04:18:10.076Z,99.99
2022-09-28T04:19:10.142Z,99.99
2022-09-28T04:20:10.056Z,99.99
2022-09-28T04:21:10.068Z,99.99
2022-09-28T04:22:10.036Z,99.99
2022-09-28T04:23:10.031Z,99.99
2022-09-28T04:24:10.036Z,99.99
2022-09-28T04:25:10.055Z,99.99
2022-09-28T04:26:09.992Z,99.99
2022-09-28T04:27:09.987Z,99.99
2022-09-28T04:28:09.972Z,99.99
2022-09-28T04:29:10.051Z,99.99
2022-09-28T04:30:09.955Z,99.99
2022-09-28T04:31:09.949Z,99.99
2022-09-28T04:32:09.932Z,99.99
2022-09-28T04:33:09.923Z,99.99
2022-09-28T04:34:09.914Z,99.99
2022-09-28T04:35:09.955Z,99.99
2022-09-28T04:36:09.891Z,99.99
2022-09-28T04:37:09.905Z,99.99
2022-09-28T04:38:09.872Z,99.99
2022-09-28T04:39:09.907Z,99.99
2022-09-28T04:40:09.867Z,99.99
2022-09-28T04:41:09.844Z,99.99
2022-09-28T04:42:09.833Z,99.99
2022-09-28T04:43:09.824Z,99.99
2022-09-28T04:44:09.812Z,99.99
2022-09-28T04:45:09.819Z,99.99
2022-09-28T04:46:09.882Z,99.99
2022-09-28T04:47:09.796Z,99.99
2022-09-28T04:48:09.769Z,99.99
2022-09-28T04:49:09.889Z,99.99
2022-09-28T04:50:09.769Z,99.99
2022-09-28T04:51:09.742Z,99.99
2022-09-28T04:52:11.675Z,99.99
2022-09-28T04:53:09.754Z,99.99
2022-09-28T04:54:09.705Z,99.99
2022-09-28T04:55:09.721Z,99.99
2022-09-28T04:56:09.683Z,99.99
2022-09-28T04:57:09.675Z,99.90
2022-09-28T04:58:09.666Z,99.95
2022-09-28T04:59:09.668Z,99.95
2022-09-28T05:00:09.658Z,99.85
2022-09-28T05:01:09.667Z,99.74
2022-09-28T05:02:09.695Z,99.64
2022-09-28T05:03:09.614Z,99.64
2022-09-28T05:04:09.607Z,99.64
2022-09-28T05:05:09.613Z,99.64
2022-09-28T05:06:09.581Z,99.64
2022-09-28T05:07:09.574Z,99.64
2022-09-28T05:08:09.562Z,99.64
2022-09-28T05:09:09.579Z,99.74
2022-09-28T05:10:09.560Z,99.74
2022-09-28T05:11:09.532Z,99.85
2022-09-28T05:12:09.526Z,99.85
2022-09-28T05:13:09.516Z,99.85
2022-09-28T05:14:09.520Z,99.85
2022-09-28T05:15:09.504Z,99.85
2022-09-28T05:16:09.551Z,99.85
2022-09-28T05:17:09.468Z,99.85
2022-09-28T05:18:09.462Z,99.85
2022-09-28T05:19:09.451Z,99.85
2022-09-28T05:20:09.445Z,99.85
2022-09-28T05:21:09.445Z,99.85
2022-09-28T05:22:09.419Z,99.74
2022-09-28T05:23:09.406Z,99.74
2022-09-28T05:24:09.399Z,99.74
2022-09-28T05:25:09.418Z,99.74
2022-09-28T05:26:09.404Z,99.74
2022-09-28T05:27:09.365Z,99.74
2022-09-28T05:28:09.353Z,99.74
2022-09-28T05:29:09.345Z,99.64
2022-09-28T05:30:09.340Z,99.54
2022-09-28T05:31:09.342Z,99.54
2022-09-28T05:32:09.361Z,99.54
2022-09-28T05:33:09.305Z,99.54
2022-09-28T05:34:09.291Z,99.54
2022-09-28T05:35:09.285Z,99.54
2022-09-28T05:36:09.290Z,99.54
2022-09-28T05:37:09.263Z,99.54
2022-09-28T05:38:09.250Z,99.64
2022-09-28T05:39:09.243Z,99.64
2022-09-28T05:40:09.231Z,99.64
2022-09-28T05:41:09.323Z,99.74
2022-09-28T05:42:09.215Z,99.85
2022-09-28T05:43:09.209Z,99.85
2022-09-28T05:44:09.190Z,99.85
2022-09-28T05:45:09.183Z,99.95
2022-09-28T05:46:09.256Z,99.95
2022-09-28T05:47:09.164Z,99.95
2022-09-28T05:48:09.151Z,99.85
2022-09-28T05:49:09.145Z,99.64
2022-09-28T05:50:09.140Z,99.64
2022-09-28T05:51:09.134Z,99.54
2022-09-28T05:52:09.107Z,99.58
2022-09-28T05:53:09.099Z,99.54
2022-09-28T05:54:09.085Z,99.69
2022-09-28T05:55:09.085Z,99.64
2022-09-28T05:56:09.083Z,99.64
2022-09-28T05:57:09.085Z,99.69
2022-09-28T05:58:09.050Z,99.64
2022-09-28T05:59:09.059Z,99.64
2022-09-28T06:00:09.029Z,99.74
2022-09-28T06:01:09.121Z,99.74
2022-09-28T06:02:09.070Z,99.74
2022-09-28T06:03:09.637Z,99.74
2022-09-28T06:04:08.984Z,99.74
2022-09-28T06:05:08.975Z,99.74
2022-09-28T06:06:08.983Z,99.74
2022-09-28T06:07:08.952Z,99.64
2022-09-28T06:08:08.942Z,99.64
2022-09-28T06:09:08.933Z,99.54
2022-09-28T06:10:08.921Z,99.54
2022-09-28T06:11:08.936Z,99.54
2022-09-28T06:12:08.903Z,99.54
2022-09-28T06:13:08.917Z,99.54
2022-09-28T06:14:08.881Z,99.43
2022-09-28T06:15:08.873Z,99.43
2022-09-28T06:16:08.939Z,99.33
2022-09-28T06:17:08.915Z,99.43
2022-09-28T06:18:08.839Z,99.43
2022-09-28T06:19:08.831Z,99.43
2022-09-28T06:20:08.817Z,99.43
2022-09-28T06:21:08.822Z,99.43
2022-09-28T06:22:08.798Z,99.43
2022-09-28T06:23:08.789Z,99.33
2022-09-28T06:24:08.777Z,99.33
2022-09-28T06:25:08.776Z,99.33
2022-09-28T06:26:08.777Z,99.33
2022-09-28T06:27:08.750Z,99.33
2022-09-28T06:28:08.737Z,99.29
2022-09-28T06:29:08.748Z,99.33
2022-09-28T06:30:08.730Z,99.29
2022-09-28T06:31:08.841Z,99.29
2022-09-28T06:32:08.692Z,99.29
2022-09-28T06:33:08.686Z,99.29
2022-09-28T06:34:08.687Z,99.29
2022-09-28T06:35:08.667Z,99.39
2022-09-28T06:36:08.677Z,99.39
2022-09-28T06:37:08.649Z,99.49
2022-09-28T06:38:08.641Z,99.49
2022-09-28T06:39:08.625Z,99.29
2022-09-28T06:40:08.610Z,99.18
2022-09-28T06:41:08.632Z,99.08
2022-09-28T06:42:08.590Z,98.97
2022-09-28T06:43:08.582Z,98.88
2022-09-28T06:44:08.572Z,98.93
2022-09-28T06:45:08.581Z,98.83
2022-09-28T06:46:08.632Z,98.72
2022-09-28T06:47:08.563Z,98.62
2022-09-28T06:48:08.535Z,98.62
2022-09-28T06:49:08.565Z,98.52
2022-09-28T06:50:08.525Z,98.42
2022-09-28T06:51:08.531Z,98.62
2022-09-28T06:52:08.495Z,98.72
2022-09-28T06:53:08.490Z,98.83
2022-09-28T06:54:08.471Z,98.93
2022-09-28T06:55:08.474Z,99.04
2022-09-28T06:56:08.457Z,98.93
2022-09-28T06:57:08.440Z,98.83
2022-09-28T06:58:08.426Z,98.72
2022-09-28T06:59:08.418Z,98.72
2022-09-28T07:00:08.419Z,98.72
2022-09-28T07:01:08.483Z,98.93
2022-09-28T07:02:08.454Z,98.72
2022-09-28T07:03:08.378Z,98.32
2022-09-28T07:04:08.365Z,98.21
2022-09-28T07:05:08.358Z,98.11
2022-09-28T07:06:08.367Z,98.11
2022-09-28T07:07:08.340Z,97.80
2022-09-28T07:08:08.330Z,97.90
2022-09-28T07:09:26.500Z,97.90
2022-09-28T07:10:09.301Z,98.11
2022-09-28T07:11:08.314Z,98.16
2022-09-28T07:12:08.291Z,98.27
2022-09-28T07:13:14.799Z,98.27
2022-09-28T07:14:11.418Z,98.27
2022-09-28T07:15:08.252Z,98.27
2022-09-28T07:16:08.288Z,98.27
2022-09-28T07:17:13.658Z,98.16
2022-09-28T07:18:09.291Z,98.06
2022-09-28T07:19:08.212Z,97.91
2022-09-28T07:20:18.167Z,97.81
2022-09-28T07:21:13.332Z,97.71
2022-09-28T07:22:09.179Z,97.61
2022-09-28T07:23:18.400Z,97.30
2022-09-28T07:24:09.161Z,96.99
2022-09-28T07:25:08.152Z,96.99
2022-09-28T07:26:09.314Z,96.99
2022-09-28T07:27:08.127Z,96.89
2022-09-28T07:28:08.123Z,96.89
2022-09-28T07:29:08.110Z,96.78
2022-09-28T07:30:08.093Z,96.37
2022-09-28T07:31:08.172Z,96.27
2022-09-28T07:32:08.077Z,96.17
2022-09-28T07:33:08.197Z,96.37
2022-09-28T07:34:08.053Z,96.53
2022-09-28T07:35:08.058Z,96.53
2022-09-28T07:36:08.047Z,96.53
2022-09-28T07:37:08.029Z,96.43
2022-09-28T07:38:08.017Z,96.43
2022-09-28T07:39:08.010Z,96.43
2022-09-28T07:40:07.993Z,96.43
2022-09-28T07:41:08.145Z,96.06
2022-09-28T07:42:07.978Z,95.75
2022-09-28T07:43:07.975Z,95.65
2022-09-28T07:44:08.014Z,95.86
2022-09-28T07:45:07.945Z,95.96
2022-09-28T07:46:08.003Z,96.06
2022-09-28T07:47:07.923Z,96.27
2022-09-28T07:48:07.972Z,96.37
2022-09-28T07:49:11.347Z,96.17
2022-09-28T07:50:07.895Z,95.86
2022-09-28T07:51:07.898Z,95.75
2022-09-28T07:52:07.872Z,95.75
2022-09-28T07:53:07.859Z,95.45
2022-09-28T07:54:07.853Z,95.34
2022-09-28T07:55:07.854Z,95.55
2022-09-28T07:56:07.848Z,95.71
2022-09-28T07:57:07.823Z,95.71
2022-09-28T07:58:07.808Z,96.02
2022-09-28T07:59:07.813Z,96.02
2022-09-28T08:00:07.789Z,96.12
2022-09-28T08:01:07.863Z,96.33
2022-09-28T08:02:07.829Z,96.43
2022-09-28T08:03:07.761Z,96.39
2022-09-28T08:04:07.806Z,96.28
2022-09-28T08:05:07.854Z,95.97
2022-09-28T08:06:07.750Z,95.56
2022-09-28T08:07:07.722Z,95.36
2022-09-28T08:08:07.707Z,95.15
2022-09-28T08:09:07.715Z,94.84
2022-09-28T08:10:07.724Z,94.84
2022-09-28T08:11:07.699Z,94.54
2022-09-28T08:12:07.668Z,94.23
2022-09-28T08:13:08.777Z,93.30
2022-09-28T08:14:07.657Z,92.69
2022-09-28T08:15:07.702Z,92.58
2022-09-28T08:16:07.640Z,92.89
2022-09-28T08:17:07.616Z,93.30
2022-09-28T08:18:07.607Z,92.79
2022-09-28T08:19:07.596Z,92.58
2022-09-28T08:20:07.598Z,92.64
2022-09-28T08:21:07.614Z,92.74
2022-09-28T08:22:07.564Z,92.03
2022-09-28T08:23:07.555Z,91.76
2022-09-28T08:24:07.551Z,92.23
2022-09-28T08:25:07.539Z,92.64
2022-09-28T08:26:09.318Z,91.82
2022-09-28T08:27:07.522Z,92.03
2022-09-28T08:28:07.506Z,92.74
2022-09-28T08:29:07.562Z,93.16
2022-09-28T08:30:07.489Z,92.91
2022-09-28T08:31:07.571Z,92.50
2022-09-28T08:32:07.463Z,92.60
2022-09-28T08:33:07.464Z,93.01
2022-09-28T08:34:07.449Z,93.12
2022-09-28T08:35:07.446Z,92.91
2022-09-28T08:36:07.435Z,92.50
2022-09-28T08:37:07.435Z,91.99
2022-09-28T08:38:07.408Z,91.78
2022-09-28T08:39:07.393Z,92.60
2022-09-28T08:40:07.384Z,91.88
2022-09-28T08:41:07.388Z,92.50
2022-09-28T08:42:07.363Z,92.29
2022-09-28T08:43:07.351Z,91.78
2022-09-28T08:44:07.345Z,91.78
2022-09-28T08:45:07.334Z,92.14
2022-09-28T08:46:07.448Z,92.25
2022-09-28T08:47:07.310Z,92.25
2022-09-28T08:48:07.302Z,91.94
2022-09-28T08:49:24.163Z,92.14
2022-09-28T08:50:08.290Z,91.74
2022-09-28T08:51:07.274Z,90.81
2022-09-28T08:52:07.277Z,90.50
2022-09-28T08:53:07.275Z,90.87
2022-09-28T08:54:09.597Z,91.38
2022-09-28T08:55:07.239Z,91.90
2022-09-28T08:56:07.230Z,91.69
2022-09-28T08:57:07.251Z,90.87
2022-09-28T08:58:07.215Z,91.65
2022-09-28T08:59:07.340Z,90.83
2022-09-28T09:00:11.572Z,90.01
2022-09-28T09:01:07.281Z,90.62
2022-09-28T09:02:07.238Z,89.19
2022-09-28T09:03:07.152Z,87.38
2022-09-28T09:04:07.145Z,88.06
2022-09-28T09:05:07.135Z,89.39
2022-09-28T09:06:07.126Z,90.52
2022-09-28T09:07:07.131Z,90.83
2022-09-28T09:08:07.102Z,90.32
2022-09-28T09:09:07.111Z,89.39
2022-09-28T09:10:07.076Z,88.68
2022-09-28T09:11:07.082Z,87.24
2022-09-28T09:12:07.061Z,87.24
2022-09-28T09:13:07.046Z,88.43
2022-09-28T09:14:07.044Z,87.92
2022-09-28T09:15:07.024Z,88.12
2022-09-28T09:16:07.049Z,87.61
2022-09-28T09:17:07.057Z,86.28
2022-09-28T09:18:06.996Z,86.07
2022-09-28T09:19:06.983Z,86.99
2022-09-28T09:20:06.975Z,85.97
2022-09-28T09:21:06.961Z,84.12
2022-09-28T09:22:06.967Z,85.46
2022-09-28T09:23:06.941Z,85.46
2022-09-28T09:24:06.936Z,85.25
2022-09-28T09:25:06.948Z,86.18
2022-09-28T09:26:06.922Z,85.80
2022-09-28T09:27:06.914Z,84.88
2022-09-28T09:28:06.894Z,86.32
2022-09-28T09:29:06.883Z,86.32
2022-09-28T09:30:06.876Z,86.42
2022-09-28T09:31:06.911Z,86.22
2022-09-28T09:32:06.874Z,86.83
2022-09-28T09:33:06.837Z,85.71
2022-09-28T09:34:06.833Z,85.50
2022-09-28T09:35:06.817Z,85.46
2022-09-28T09:36:06.814Z,85.87
2022-09-28T09:37:06.812Z,85.97
2022-09-28T09:38:06.843Z,86.34
2022-09-28T09:39:06.775Z,84.80
2022-09-28T09:40:06.778Z,85.63
2022-09-28T09:41:06.951Z,84.46
2022-09-28T09:42:06.762Z,83.74
2022-09-28T09:43:06.734Z,84.77
2022-09-28T09:44:06.727Z,85.99
2022-09-28T09:45:06.724Z,84.91
2022-09-28T09:46:06.765Z,84.70
2022-09-28T09:47:06.707Z,84.09
2022-09-28T09:48:06.683Z,84.29
2022-09-28T09:49:06.675Z,84.03
2022-09-28T09:50:08.352Z,84.84
2022-09-28T09:51:06.654Z,84.74
2022-09-28T09:52:06.667Z,84.95
2022-09-28T09:53:06.631Z,85.87
2022-09-28T09:54:06.623Z,86.90
2022-09-28T09:55:06.610Z,85.56
2022-09-28T09:56:06.599Z,85.36
2022-09-28T09:57:06.628Z,86.01
2022-09-28T09:58:06.578Z,85.91
2022-09-28T09:59:06.572Z,86.01
2022-09-28T10:00:06.561Z,87.10
2022-09-28T10:01:06.615Z,87.30
2022-09-28T10:02:09.852Z,86.99
2022-09-28T10:03:07.534Z,85.97
2022-09-28T10:04:06.521Z,85.66
2022-09-28T10:05:06.509Z,85.60
2022-09-28T10:06:06.500Z,86.58
2022-09-28T10:07:06.498Z,86.48
2022-09-28T10:08:06.476Z,85.36
2022-09-28T10:09:06.467Z,84.91
2022-09-28T10:10:06.459Z,85.42
2022-09-28T10:11:06.445Z,85.28
2022-09-28T10:12:06.450Z,84.52
2022-09-28T10:13:06.454Z,85.03
2022-09-28T10:14:06.412Z,81.01
2022-09-28T10:15:06.404Z,80.19
2022-09-28T10:16:06.392Z,81.51
2022-09-28T10:17:06.476Z,83.46
2022-09-28T10:18:06.375Z,82.84
2022-09-28T10:19:06.365Z,83.05
2022-09-28T10:20:06.359Z,84.38
2022-09-28T10:21:06.355Z,81.82
2022-09-28T10:22:06.357Z,82.13
2022-09-28T10:23:06.321Z,81.41
2022-09-28T10:24:06.308Z,79.47
2022-09-28T10:25:06.309Z,78.59
2022-09-28T10:26:06.288Z,79.82
2022-09-28T10:27:06.294Z,81.24
2022-09-28T10:28:06.284Z,80.63
2022-09-28T10:29:06.279Z,80.94
2022-09-28T10:30:06.328Z,81.56
2022-09-28T10:31:06.344Z,81.45
2022-09-28T10:32:06.241Z,81.38
2022-09-28T10:33:06.217Z,80.98
2022-09-28T10:34:06.210Z,81.08
2022-09-28T10:35:06.296Z,81.49
2022-09-28T10:36:06.182Z,82.00
2022-09-28T10:37:06.187Z,82.10
2022-09-28T10:38:06.166Z,82.41
2022-09-28T10:39:06.153Z,82.62
2022-09-28T10:40:06.213Z,83.03
2022-09-28T10:41:06.161Z,82.82
2022-09-28T10:42:06.142Z,83.54
2022-09-28T10:43:06.110Z,83.84
2022-09-28T10:44:06.355Z,83.74
2022-09-28T10:45:06.118Z,84.25
2022-09-28T10:46:06.185Z,83.74
2022-09-28T10:47:06.072Z,83.74
2022-09-28T10:48:06.071Z,83.19
2022-09-28T10:49:06.051Z,83.60
2022-09-28T10:50:06.077Z,83.81
2022-09-28T10:51:06.029Z,84.22
2022-09-28T10:52:06.020Z,82.78
2022-09-28T10:53:06.023Z,82.75
2022-09-28T10:54:05.998Z,83.76
2022-09-28T10:55:05.984Z,84.07
2022-09-28T10:56:05.973Z,83.46
2022-09-28T10:57:09.200Z,80.90
2022-09-28T10:58:06.968Z,81.93
2022-09-28T10:59:05.946Z,82.54
2022-09-28T11:00:06.028Z,83.36
2022-09-28T11:01:06.004Z,81.51
2022-09-28T11:02:05.967Z,82.54
2022-09-28T11:03:05.918Z,79.68
2022-09-28T11:04:05.891Z,81.72
2022-09-28T11:05:06.003Z,79.88
2022-09-28T11:06:05.872Z,81.10
2022-09-28T11:07:05.858Z,81.82
2022-09-28T11:08:05.889Z,81.88
2022-09-28T11:09:05.843Z,80.97
2022-09-28T11:10:05.929Z,80.56
2022-09-28T11:11:05.822Z,82.70
2022-09-28T11:12:05.811Z,82.40
2022-09-28T11:13:05.826Z,81.85
2022-09-28T11:14:05.791Z,79.70
2022-09-28T11:15:05.778Z,79.80
2022-09-28T11:16:05.773Z,81.24
2022-09-28T11:17:05.817Z,79.39
2022-09-28T11:18:05.757Z,79.70
2022-09-28T11:19:05.919Z,79.39
2022-09-28T11:20:05.797Z,80.11
2022-09-28T11:21:06.075Z,80.21
2022-09-28T11:22:05.725Z,81.54
2022-09-28T11:23:05.696Z,81.95
2022-09-28T11:24:05.691Z,80.32
2022-09-28T11:25:05.677Z,80.42
2022-09-28T11:26:05.663Z,81.65
2022-09-28T11:27:05.666Z,78.68
2022-09-28T11:28:05.646Z,79.29
2022-09-28T11:29:05.633Z,79.97
2022-09-28T11:30:05.656Z,77.86
2022-09-28T11:31:05.651Z,78.07
2022-09-28T11:32:05.618Z,78.68
2022-09-28T11:33:05.750Z,77.56
2022-09-28T11:34:05.605Z,77.76
2022-09-28T11:35:05.569Z,77.56
2022-09-28T11:36:05.599Z,77.66
2022-09-28T11:37:05.548Z,77.25
2022-09-28T11:38:05.559Z,77.66
2022-09-28T11:39:05.527Z,78.85
2022-09-28T11:40:05.581Z,78.85
2022-09-28T11:41:05.506Z,77.52
2022-09-28T11:42:05.495Z,77.11
2022-09-28T11:44:05.479Z,77.62
2022-09-28T11:45:05.464Z,76.23
2022-09-28T11:46:05.520Z,76.64
2022-09-28T11:47:05.443Z,75.71
2022-09-28T11:48:05.449Z,75.71
2022-09-28T11:49:05.445Z,75.21
2022-09-28T11:50:05.417Z,75.62
2022-09-28T11:51:05.404Z,78.27
2022-09-28T11:52:05.397Z,76.84
2022-09-28T11:53:05.408Z,76.70
2022-09-28T11:54:05.373Z,78.03
2022-09-28T11:55:05.367Z,75.58
2022-09-28T11:56:08.674Z,74.76
2022-09-28T11:57:05.342Z,74.46
2022-09-28T11:58:05.352Z,75.78
2022-09-28T11:59:05.319Z,76.50
2022-09-28T12:00:05.310Z,77.22
2022-09-28T12:01:05.299Z,76.70
2022-09-28T12:02:05.452Z,76.70
2022-09-28T12:03:05.508Z,76.50
2022-09-28T12:04:05.285Z,75.89
2022-09-28T12:05:05.283Z,75.27
2022-09-28T12:06:05.275Z,75.99
2022-09-28T12:07:05.326Z,77.11
2022-09-28T12:08:05.256Z,76.50
2022-09-28T12:09:05.224Z,76.70
2022-09-28T12:10:05.342Z,77.52
2022-09-28T12:11:05.193Z,76.70
2022-09-28T12:12:05.200Z,76.09
2022-09-28T12:13:05.200Z,76.40
2022-09-28T12:14:05.165Z,77.42
2022-09-28T12:15:05.152Z,76.40
2022-09-28T12:16:27.588Z,76.60
2022-09-28T12:17:07.942Z,77.01
2022-09-28T12:18:05.343Z,77.11
2022-09-28T12:19:05.110Z,77.52
2022-09-28T12:20:05.108Z,77.93
2022-09-28T12:21:05.385Z,75.48
2022-09-28T12:22:05.081Z,76.50
2022-09-28T12:23:05.091Z,77.42
2022-09-28T12:24:05.071Z,77.62
2022-09-28T12:25:05.056Z,77.52
2022-09-28T12:26:05.039Z,77.22
2022-09-28T12:27:05.029Z,76.60
2022-09-28T12:28:05.039Z,75.58
2022-09-28T12:29:05.011Z,77.11
2022-09-28T12:30:05.000Z,77.83
2022-09-28T12:31:05.051Z,78.23
2022-09-28T12:32:04.986Z,78.13
2022-09-28T12:33:04.979Z,78.23
2022-09-28T12:34:04.960Z,77.01
2022-09-28T12:35:04.948Z,76.97
2022-09-28T12:36:05.063Z,74.93
2022-09-28T12:37:04.948Z,75.65
2022-09-28T12:38:04.931Z,77.28
2022-09-28T12:40:06.657Z,75.34
2022-09-28T12:41:04.965Z,74.93
2022-09-28T12:42:04.882Z,75.54
2022-09-28T12:43:04.881Z,76.16
2022-09-28T12:44:04.859Z,76.16
2022-09-28T12:45:04.841Z,75.85
2022-09-28T12:46:11.853Z,76.46
2022-09-28T12:47:05.868Z,75.95
2022-09-28T12:48:04.828Z,75.04
2022-09-28T12:49:51.583Z,74.83
2022-09-28T12:50:37.996Z,76.26
2022-09-28T12:51:05.781Z,77.18
2022-09-28T12:52:04.767Z,77.08
2022-09-28T12:53:04.808Z,75.95
2022-09-28T12:54:04.772Z,75.13